Time;durP1;ratioP1;P1;durP2;ratioP2;P2;SDS_P1;SDS_P2;PMS_P1;PMS_P2;Temp;Humidity;BMP_temperature;BMP_pressure;BME280_temperature;BME280_humidity;BME280_pressure;Samples;Min_cycle;Max_cycle;Signal;HPM_P1;HPM_P2
2023/09/26 00:00:15;;;;;;;7.18;6.00;;;11.20;99.90;;;;;;6066800;23;20169;-87
2023/09/26 00:02:42;;;;;;;7.22;6.20;;;11.20;99.90;;;;;;6064714;23;20693;-87
2023/09/26 00:05:10;;;;;;;6.57;5.90;;;11.00;99.90;;;;;;6065770;23;20632;-87
2023/09/26 00:07:37;;;;;;;8.30;6.95;;;10.90;99.90;;;;;;6041193;23;20181;-87
2023/09/26 00:10:05;;;;;;;7.70;5.60;;;10.80;99.90;;;;;;6066429;23;20177;-87
2023/09/26 00:12:32;;;;;;;8.88;5.95;;;10.80;99.90;;;;;;6041408;23;20177;-87
2023/09/26 00:15:16;;;;;;;6.88;5.85;;;10.80;99.90;;;;;;6066698;23;20169;-87
2023/09/26 00:17:43;;;;;;;7.35;6.63;;;10.80;99.90;;;;;;6064266;23;20201;-87
2023/09/26 00:20:12;;;;;;;7.38;5.50;;;10.90;99.90;;;;;;6064091;23;20515;-87
2023/09/26 00:22:39;;;;;;;7.35;6.25;;;10.90;99.90;;;;;;6040538;23;20259;-87
2023/09/26 00:25:06;;;;;;;8.02;5.40;;;10.80;99.90;;;;;;6039670;23;20701;-87
2023/09/26 00:27:33;;;;;;;7.43;5.82;;;10.70;99.90;;;;;;6039935;23;20813;-87
2023/09/26 00:30:02;;;;;;;6.38;5.78;;;10.70;99.90;;;;;;6065974;23;20178;-87
2023/09/26 00:32:30;;;;;;;5.63;5.13;;;10.80;99.90;;;;;;6065675;23;20983;-87
2023/09/26 00:34:57;;;;;;;4.93;4.43;;;10.90;99.90;;;;;;6065805;23;20173;-86
2023/09/26 00:37:24;;;;;;;5.63;4.82;;;11.00;99.90;;;;;;6065246;23;20256;-87
2023/09/26 00:39:52;;;;;;;5.75;5.20;;;10.90;99.90;;;;;;6065470;23;20195;-87
2023/09/26 00:42:19;;;;;;;6.40;4.57;;;10.90;99.90;;;;;;6066069;23;20256;-87
2023/09/26 00:44:46;;;;;;;5.68;4.45;;;10.90;99.90;;;;;;6064538;23;20179;-87
2023/09/26 00:47:13;;;;;;;5.85;4.78;;;10.80;99.90;;;;;;6042828;23;20247;-87
2023/09/26 00:49:42;;;;;;;5.72;5.13;;;10.80;99.90;;;;;;6066788;23;20233;-87
2023/09/26 00:52:09;;;;;;;6.15;4.75;;;10.80;99.90;;;;;;6018421;23;20232;-87
2023/09/26 00:54:36;;;;;;;6.15;4.57;;;10.90;99.90;;;;;;6041443;23;20640;-87
2023/09/26 00:57:05;;;;;;;5.40;4.50;;;10.80;99.90;;;;;;6067339;23;20173;-87
2023/09/26 00:59:33;;;;;;;6.13;4.80;;;10.60;99.90;;;;;;6066876;23;20201;-86
2023/09/26 01:02:00;;;;;;;5.50;4.90;;;10.50;99.90;;;;;;6042543;23;20181;-86
2023/09/26 01:04:28;;;;;;;8.85;5.18;;;10.40;99.90;;;;;;6066940;23;20655;-86
2023/09/26 01:06:56;;;;;;;11.65;8.27;;;10.60;99.90;;;;;;6067662;23;20180;-87
2023/09/26 01:09:23;;;;;;;25.98;20.08;;;10.60;99.90;;;;;;6042717;23;20264;-87
2023/09/26 01:11:50;;;;;;;40.05;31.73;;;10.60;99.90;;;;;;6067720;23;20180;-86
2023/09/26 01:14:17;;;;;;;15.10;11.65;;;10.60;99.90;;;;;;6067351;23;20185;-86
2023/09/26 01:16:44;;;;;;;19.15;14.75;;;10.60;99.90;;;;;;6066394;23;20180;-87
2023/09/26 01:19:11;;;;;;;8.50;6.38;;;10.50;99.90;;;;;;6068422;23;20205;-87
2023/09/26 01:21:37;;;;;;;13.13;8.95;;;10.50;99.90;;;;;;6065106;23;20199;-87
2023/09/26 01:24:06;;;;;;;7.53;5.68;;;10.50;99.90;;;;;;6042083;23;20256;-87
2023/09/26 01:26:37;;;;;;;13.10;10.25;;;10.50;99.90;;;;;;6042270;23;20181;-87
2023/09/26 01:29:06;;;;;;;7.25;6.50;;;10.40;99.90;;;;;;6067018;23;20185;-86
2023/09/26 01:31:34;;;;;;;8.70;6.22;;;10.40;99.90;;;;;;6043151;23;20174;-87
2023/09/26 01:34:02;;;;;;;42.60;35.60;;;10.30;99.90;;;;;;6041431;23;20229;-88
2023/09/26 01:36:29;;;;;;;12.60;10.32;;;10.40;99.90;;;;;;6040717;23;20174;-87
2023/09/26 01:38:55;;;;;;;14.63;12.07;;;10.50;99.90;;;;;;6066128;23;20671;-87
2023/09/26 01:41:24;;;;;;;34.80;28.48;;;10.50;99.90;;;;;;6067569;23;20173;-87
2023/09/26 01:43:51;;;;;;;20.50;17.42;;;10.50;99.90;;;;;;6067512;23;20178;-86
2023/09/26 01:46:20;;;;;;;5.40;4.90;;;10.50;99.90;;;;;;6017491;23;20229;-87
2023/09/26 01:48:47;;;;;;;6.13;5.13;;;10.40;99.90;;;;;;6066474;23;20184;-87
2023/09/26 01:51:13;;;;;;;30.38;24.88;;;10.30;99.90;;;;;;6066727;23;20226;-87
2023/09/26 01:53:40;;;;;;;16.25;14.15;;;10.30;99.90;;;;;;6067917;23;20173;-87
2023/09/26 01:56:07;;;;;;;5.57;4.70;;;10.50;99.90;;;;;;6040112;23;20189;-87
2023/09/26 01:58:38;;;;;;;6.13;5.18;;;10.30;99.90;;;;;;6067690;23;20203;-87
2023/09/26 02:01:05;;;;;;;5.15;4.65;;;10.20;99.90;;;;;;6067047;23;20166;-87
2023/09/26 02:03:32;;;;;;;5.50;5.00;;;10.10;99.90;;;;;;6040040;23;20193;-86
2023/09/26 02:05:59;;;;;;;13.90;11.50;;;10.10;99.90;;;;;;6065081;23;20177;-87
2023/09/26 02:08:26;;;;;;;9.23;7.53;;;10.10;99.90;;;;;;6066347;23;20263;-86
2023/09/26 02:10:53;;;;;;;17.17;12.88;;;10.10;99.90;;;;;;6064982;23;20625;-87
2023/09/26 02:13:20;;;;;;;6.93;4.72;;;10.10;99.90;;;;;;6066717;23;20174;-86
2023/09/26 02:15:48;;;;;;;5.57;5.05;;;10.10;99.90;;;;;;6066573;23;20212;-86
2023/09/26 02:18:15;;;;;;;6.05;5.40;;;10.10;99.90;;;;;;6065951;23;20648;-87
2023/09/26 02:20:42;;;;;;;9.05;7.63;;;10.10;99.90;;;;;;6067770;23;20216;-87
2023/09/26 02:23:10;;;;;;;8.18;7.30;;;10.10;99.90;;;;;;6041323;23;20237;-87
2023/09/26 02:25:37;;;;;;;7.60;5.72;;;10.10;99.90;;;;;;6064894;23;20185;-86
2023/09/26 02:28:04;;;;;;;14.18;9.68;;;10.10;99.90;;;;;;6041303;23;20181;-87
2023/09/26 02:30:31;;;;;;;11.88;8.18;;;10.30;99.90;;;;;;6041891;23;20174;-87
2023/09/26 02:33:00;;;;;;;9.52;7.90;;;10.30;99.90;;;;;;6041209;23;20181;-87
2023/09/26 02:35:27;;;;;;;8.57;6.57;;;10.30;99.90;;;;;;6067672;23;20181;-86
2023/09/26 02:37:53;;;;;;;11.63;7.65;;;10.40;99.90;;;;;;6065031;23;20748;-87
2023/09/26 02:40:20;;;;;;;4.88;4.40;;;10.30;99.90;;;;;;6066222;23;20175;-87
2023/09/26 02:42:50;;;;;;;12.05;10.52;;;10.20;99.90;;;;;;6066200;23;20177;-87
2023/09/26 02:45:17;;;;;;;5.35;4.85;;;10.20;99.90;;;;;;6042097;23;20174;-87
2023/09/26 02:47:44;;;;;;;10.02;7.03;;;10.20;99.90;;;;;;6066376;23;20181;-87
2023/09/26 02:50:13;;;;;;;6.90;6.20;;;10.20;99.90;;;;;;6041309;23;20178;-87
2023/09/26 02:52:42;;;;;;;12.70;10.10;;;10.30;99.90;;;;;;6066843;23;20173;-87
2023/09/26 02:55:09;;;;;;;7.50;5.93;;;10.30;99.90;;;;;;6066916;23;20196;-86
2023/09/26 02:57:37;;;;;;;7.57;6.47;;;10.40;99.90;;;;;;6066380;23;20652;-87
2023/09/26 03:00:12;;;;;;;7.25;5.25;;;10.40;99.90;;;;;;6041627;23;20201;-87
2023/09/26 03:02:39;;;;;;;5.60;4.75;;;10.40;99.90;;;;;;6066412;23;20244;-87
2023/09/26 03:05:06;;;;;;;6.75;5.70;;;10.40;99.90;;;;;;6065920;23;20197;-87
2023/09/26 03:07:35;;;;;;;8.23;6.72;;;10.30;99.90;;;;;;6065856;23;20181;-87
2023/09/26 03:10:01;;;;;;;7.15;5.18;;;10.40;99.90;;;;;;6065234;23;20201;-87
2023/09/26 03:12:28;;;;;;;7.70;6.32;;;10.30;99.90;;;;;;6066322;23;20188;-86
2023/09/26 03:14:56;;;;;;;5.35;4.38;;;10.30;99.90;;;;;;6039511;23;20237;-86
2023/09/26 03:17:23;;;;;;;4.95;4.43;;;10.20;99.90;;;;;;6065587;23;20173;-87
2023/09/26 03:19:50;;;;;;;5.78;5.13;;;10.10;99.90;;;;;;6065844;23;20205;-86
2023/09/26 03:22:17;;;;;;;6.32;4.75;;;10.00;99.90;;;;;;6064691;23;20173;-87
2023/09/26 03:24:46;;;;;;;5.18;4.63;;;10.00;99.90;;;;;;6064793;23;20181;-87
2023/09/26 03:27:13;;;;;;;7.47;5.25;;;10.00;99.90;;;;;;6064906;23;20489;-87
2023/09/26 03:29:40;;;;;;;5.90;5.00;;;10.00;99.90;;;;;;6065047;23;20249;-88
2023/09/26 03:32:07;;;;;;;5.90;5.03;;;10.00;99.90;;;;;;6064661;23;20609;-88
2023/09/26 03:34:34;;;;;;;8.02;5.65;;;10.00;99.90;;;;;;6064030;23;20221;-87
2023/09/26 03:37:00;;;;;;;5.00;4.50;;;10.00;99.90;;;;;;6065057;23;20204;-87
2023/09/26 03:39:27;;;;;;;4.97;4.20;;;10.00;99.90;;;;;;6040766;23;20196;-86
2023/09/26 03:41:56;;;;;;;4.68;4.07;;;10.10;99.90;;;;;;6066395;23;20185;-88
2023/09/26 03:44:23;;;;;;;8.98;5.90;;;10.10;99.90;;;;;;6064646;23;20169;-87
2023/09/26 03:46:50;;;;;;;4.60;4.20;;;10.10;99.90;;;;;;6060415;23;20181;-86
2023/09/26 03:49:17;;;;;;;6.00;4.72;;;10.10;99.90;;;;;;6064063;23;20229;-87
2023/09/26 03:51:44;;;;;;;5.55;4.82;;;10.00;99.90;;;;;;6064493;23;20197;-86
2023/09/26 03:54:11;;;;;;;7.13;5.00;;;9.90;99.90;;;;;;6064044;23;20173;-87
2023/09/26 03:56:38;;;;;;;5.70;5.10;;;9.80;99.90;;;;;;6065471;23;20177;-86
2023/09/26 03:59:07;;;;;;;5.75;5.15;;;9.80;99.90;;;;;;6064404;23;20205;-87
2023/09/26 04:01:34;;;;;;;6.20;4.97;;;9.90;99.90;;;;;;6064994;23;20177;-87
2023/09/26 04:04:02;;;;;;;5.00;4.28;;;9.90;99.90;;;;;;6062849;23;20188;-87
2023/09/26 04:06:32;;;;;;;4.55;4.10;;;9.90;99.90;;;;;;6065422;23;20516;-86
2023/09/26 04:08:59;;;;;;;4.80;4.38;;;9.80;99.90;;;;;;6063148;23;20188;-87
2023/09/26 04:11:26;;;;;;;4.82;4.32;;;9.60;99.90;;;;;;6065191;23;20256;-87
2023/09/26 04:13:54;;;;;;;5.35;4.72;;;9.40;99.90;;;;;;6037798;23;20185;-86
2023/09/26 04:16:22;;;;;;;4.70;4.28;;;9.40;99.90;;;;;;6064966;23;20174;-88
2023/09/26 04:18:49;;;;;;;6.15;5.00;;;9.30;99.90;;;;;;6033081;23;20205;-87
2023/09/26 04:21:16;;;;;;;5.95;4.78;;;9.20;99.90;;;;;;6035505;23;20720;-87
2023/09/26 04:23:43;;;;;;;5.38;4.88;;;9.30;99.90;;;;;;6033489;23;20185;-87
2023/09/26 04:26:14;;;;;;;4.85;4.38;;;9.20;99.90;;;;;;6036389;23;20256;-87
2023/09/26 04:28:41;;;;;;;4.97;4.47;;;9.10;99.90;;;;;;6037229;23;20174;-88
2023/09/26 04:31:13;;;;;;;5.82;4.88;;;9.10;99.90;;;;;;6037995;23;20363;-87
2023/09/26 04:33:43;;;;;;;8.15;5.03;;;9.10;99.90;;;;;;6037082;23;20617;-91
2023/09/26 04:36:09;;;;;;;5.30;4.75;;;9.00;99.90;;;;;;6037244;23;20196;-88
2023/09/26 04:38:37;;;;;;;4.75;4.32;;;9.20;99.90;;;;;;6037377;23;20190;-87
2023/09/26 04:41:04;;;;;;;5.30;4.70;;;9.20;99.90;;;;;;6035880;23;20178;-87
2023/09/26 04:43:31;;;;;;;6.65;4.97;;;9.10;99.90;;;;;;6038133;23;20181;-90
2023/09/26 04:45:58;;;;;;;5.70;5.10;;;9.10;99.90;;;;;;6036386;23;20180;-89
2023/09/26 04:48:25;;;;;;;7.40;5.07;;;9.00;99.90;;;;;;6037793;23;20174;-89
2023/09/26 04:53:35;;;;;;;6.68;4.88;;;9.10;99.90;;;;;;6037901;23;20174;-88
2023/09/26 04:56:02;;;;;;;5.90;4.97;;;9.10;99.90;;;;;;6036662;23;20236;-88
2023/09/26 04:58:30;;;;;;;6.38;5.10;;;9.20;99.90;;;;;;6013024;23;20240;-88
2023/09/26 05:00:57;;;;;;;5.60;4.43;;;9.20;99.90;;;;;;6037995;23;20182;-88
2023/09/26 05:03:24;;;;;;;5.55;4.88;;;9.20;99.90;;;;;;6035102;23;20185;-89
2023/09/26 05:05:53;;;;;;;6.55;4.68;;;9.20;99.90;;;;;;6034506;23;20174;-89
2023/09/26 05:08:23;;;;;;;4.90;4.40;;;9.10;99.90;;;;;;6035309;23;20629;-92
2023/09/26 05:10:50;;;;;;;5.43;4.90;;;9.10;99.90;;;;;;6038073;23;20182;-90
2023/09/26 05:13:16;;;;;;;6.20;4.70;;;9.10;99.90;;;;;;6036071;23;20626;-90
2023/09/26 05:15:43;;;;;;;6.50;4.40;;;9.10;99.90;;;;;;6036806;23;20174;-91
2023/09/26 05:18:10;;;;;;;8.88;4.97;;;9.10;99.90;;;;;;6037074;23;20174;-90
2023/09/26 05:20:37;;;;;;;7.13;4.72;;;9.20;99.90;;;;;;6036428;23;20614;-92
2023/09/26 05:25:46;;;;;;;5.78;4.55;;;9.30;99.90;;;;;;6022184;23;20181;-90
2023/09/26 05:28:13;;;;;;;4.65;4.25;;;9.40;99.90;;;;;;6036823;23;20233;-90
2023/09/26 05:30:42;;;;;;;7.47;4.70;;;9.30;99.90;;;;;;6036335;23;20178;-91
2023/09/26 05:33:09;;;;;;;5.20;4.25;;;9.30;99.90;;;;;;6038692;23;20182;-88
2023/09/26 05:35:36;;;;;;;5.88;5.05;;;9.40;99.90;;;;;;6037444;23;20272;-88
2023/09/26 05:38:05;;;;;;;6.90;4.65;;;9.50;99.90;;;;;;6037550;23;20637;-88
2023/09/26 05:40:32;;;;;;;5.25;4.75;;;9.50;99.90;;;;;;6037205;23;20194;-89
2023/09/26 05:42:59;;;;;;;5.60;4.25;;;9.50;99.90;;;;;;6035433;23;20748;-88
2023/09/26 05:45:25;;;;;;;7.30;4.47;;;9.60;99.90;;;;;;6038060;23;20178;-88
2023/09/26 05:47:53;;;;;;;8.65;4.45;;;9.60;99.90;;;;;;6038175;23;20625;-85
2023/09/26 05:50:20;;;;;;;6.10;4.45;;;9.70;99.90;;;;;;6036970;23;20181;-86
2023/09/26 05:52:46;;;;;;;5.88;4.68;;;9.60;99.90;;;;;;6036923;23;20178;-86
2023/09/26 05:55:15;;;;;;;7.85;4.35;;;9.70;99.90;;;;;;6038288;23;20180;-86
2023/09/26 05:57:42;;;;;;;6.40;4.53;;;9.80;99.90;;;;;;6038009;23;20180;-87
2023/09/26 06:00:12;;;;;;;8.75;4.93;;;9.80;99.90;;;;;;6036341;23;20578;-85
2023/09/26 06:02:39;;;;;;;5.32;4.53;;;9.90;99.90;;;;;;6035208;23;20572;-86
2023/09/26 06:05:07;;;;;;;6.10;4.13;;;10.10;99.90;;;;;;6036828;23;20182;-85
2023/09/26 06:07:34;;;;;;;5.22;4.47;;;10.20;99.90;;;;;;6037285;23;20189;-86
2023/09/26 06:10:01;;;;;;;5.18;4.68;;;10.30;99.90;;;;;;6033984;23;20174;-89
2023/09/26 06:12:30;;;;;;;5.60;4.18;;;10.40;99.90;;;;;;6031209;23;20181;-86
2023/09/26 06:14:57;;;;;;;7.47;4.20;;;10.40;99.90;;;;;;6035866;23;20178;-87
2023/09/26 06:17:24;;;;;;;5.88;4.20;;;10.50;99.90;;;;;;6038353;23;20702;-88
2023/09/26 06:19:52;;;;;;;5.15;4.35;;;10.70;99.90;;;;;;6057009;23;20194;-87
2023/09/26 06:33:44;;;;;;;5.07;3.88;;;11.10;99.90;;;;;;6059902;23;20177;-88
2023/09/26 06:38:54;;;;;;;4.85;3.78;;;11.40;99.90;;;;;;6064404;23;20170;-86
2023/09/26 06:41:22;;;;;;;4.68;3.85;;;11.40;99.90;;;;;;6064919;23;20198;-87
2023/09/26 06:46:32;;;;;;;7.88;4.20;;;11.50;99.90;;;;;;6064841;23;20176;-87
2023/09/26 06:48:59;;;;;;;8.60;3.95;;;11.50;99.90;;;;;;6066875;23;20177;-88
2023/09/26 06:51:27;;;;;;;4.68;4.15;;;11.60;99.90;;;;;;6017437;23;20202;-87
2023/09/26 06:53:54;;;;;;;6.97;4.18;;;11.70;99.90;;;;;;6066362;23;20252;-87
2023/09/26 06:56:22;;;;;;;7.07;3.92;;;11.70;99.90;;;;;;6040367;23;20181;-86
2023/09/26 06:58:50;;;;;;;8.30;4.95;;;11.80;99.90;;;;;;6016911;23;20181;-85
2023/09/26 07:01:18;;;;;;;5.70;4.10;;;11.80;99.90;;;;;;6062874;23;20224;-87
2023/09/26 07:03:46;;;;;;;6.93;4.85;;;12.00;99.90;;;;;;6065358;23;20180;-87
2023/09/26 07:06:14;;;;;;;8.13;5.40;;;12.00;99.90;;;;;;6066585;23;20260;-87
2023/09/26 07:08:43;;;;;;;7.05;5.00;;;12.20;99.90;;;;;;6017860;23;20189;-87
2023/09/26 07:11:10;;;;;;;7.47;5.85;;;12.30;99.90;;;;;;6066976;23;20181;-88
2023/09/26 07:13:37;;;;;;;7.13;5.75;;;12.40;99.90;;;;;;6066253;23;20703;-87
2023/09/26 07:16:08;;;;;;;9.80;6.80;;;12.60;99.90;;;;;;6041128;23;20181;-87
2023/09/26 07:18:36;;;;;;;10.40;6.38;;;12.70;99.90;;;;;;6066973;23;20177;-87
2023/09/26 07:21:06;;;;;;;7.30;6.25;;;12.80;99.90;;;;;;6041412;23;20249;-87
2023/09/26 07:23:34;;;;;;;9.07;6.80;;;12.80;99.90;;;;;;6042252;23;20241;-87
2023/09/26 07:26:09;;;;;;;7.53;6.72;;;12.90;99.90;;;;;;6017066;23;20204;-86
2023/09/26 07:28:35;;;;;;;9.25;7.32;;;13.00;99.90;;;;;;6042376;23;20470;-85
2023/09/26 07:31:04;;;;;;;10.70;7.10;;;13.10;99.90;;;;;;6041773;23;20494;-86
2023/09/26 07:33:33;;;;;;;8.38;6.50;;;13.20;99.90;;;;;;6066458;23;20181;-85
2023/09/26 07:36:00;;;;;;;8.00;6.47;;;13.30;99.90;;;;;;6040562;23;20184;-86
2023/09/26 07:38:27;;;;;;;9.27;6.43;;;13.30;99.90;;;;;;6066171;23;20778;-86
2023/09/26 07:40:54;;;;;;;9.10;6.35;;;13.40;99.90;;;;;;6039973;23;20201;-87
2023/09/26 07:43:21;;;;;;;8.88;7.22;;;13.50;99.90;;;;;;6065658;23;20260;-86
2023/09/26 07:45:47;;;;;;;11.98;8.93;;;13.50;99.90;;;;;;6040805;23;20180;-87
2023/09/26 07:48:14;;;;;;;14.07;10.60;;;13.60;99.90;;;;;;6066846;23;20178;-87
2023/09/26 07:50:43;;;;;;;11.82;8.27;;;13.70;99.90;;;;;;6067207;23;20985;-86
2023/09/26 07:53:09;;;;;;;10.32;7.75;;;13.80;99.90;;;;;;6065375;23;20181;-87
2023/09/26 07:55:37;;;;;;;9.48;7.93;;;14.00;99.90;;;;;;6066520;23;20213;-87
2023/09/26 07:58:04;;;;;;;10.43;8.60;;;14.10;99.90;;;;;;6066141;23;20180;-85
2023/09/26 08:00:31;;;;;;;15.77;8.50;;;14.20;99.90;;;;;;6065014;23;20193;-85
2023/09/26 08:02:58;;;;;;;9.60;7.95;;;14.20;99.90;;;;;;6040653;23;20268;-87
2023/09/26 08:05:25;;;;;;;10.30;7.85;;;14.40;99.90;;;;;;6040770;23;20189;-86
2023/09/26 08:07:53;;;;;;;8.88;7.68;;;14.40;99.90;;;;;;6041089;23;20248;-87
2023/09/26 08:10:20;;;;;;;9.50;7.47;;;14.60;99.80;;;;;;6066629;23;20264;-87
2023/09/26 08:12:47;;;;;;;7.72;6.70;;;14.60;99.80;;;;;;6040667;23;20896;-87
2023/09/26 08:15:14;;;;;;;9.60;6.45;;;14.70;99.90;;;;;;6040443;23;20492;-84
2023/09/26 08:17:40;;;;;;;6.90;6.20;;;14.70;99.70;;;;;;6066911;23;20181;-87
2023/09/26 08:20:09;;;;;;;6.35;5.75;;;14.80;99.90;;;;;;6065990;23;20716;-87
2023/09/26 08:22:36;;;;;;;9.90;6.35;;;14.80;99.90;;;;;;6040747;23;20236;-85
2023/09/26 08:25:05;;;;;;;10.15;6.80;;;14.90;99.80;;;;;;6064585;23;20173;-87
2023/09/26 08:27:32;;;;;;;8.60;7.10;;;15.10;98.90;;;;;;6039118;23;20185;-85
2023/09/26 08:30:00;;;;;;;10.23;7.13;;;15.20;98.80;;;;;;6040675;23;20229;-86
2023/09/26 08:32:27;;;;;;;9.05;7.28;;;15.30;98.50;;;;;;6064871;23;20181;-86
2023/09/26 08:34:56;;;;;;;7.10;6.28;;;15.60;97.00;;;;;;6065311;23;20233;-86
2023/09/26 08:37:23;;;;;;;12.00;7.30;;;15.70;97.10;;;;;;6041139;23;20306;-86
2023/09/26 08:39:50;;;;;;;8.25;6.22;;;15.80;97.10;;;;;;6039361;23;20173;-87
2023/09/26 08:42:25;;;;;;;11.18;8.13;;;15.80;97.10;;;;;;6065917;23;20181;-86
2023/09/26 08:44:52;;;;;;;10.00;6.93;;;15.90;96.70;;;;;;6039590;23;20184;-86
2023/09/26 08:47:21;;;;;;;12.20;8.65;;;16.00;96.70;;;;;;6066079;23;20177;-86
2023/09/26 08:49:49;;;;;;;9.95;7.35;;;16.20;95.30;;;;;;6065835;23;20179;-87
2023/09/26 08:52:16;;;;;;;10.52;6.82;;;16.40;95.20;;;;;;6065081;23;20200;-87
2023/09/26 08:54:43;;;;;;;6.78;6.00;;;16.40;95.10;;;;;;6037761;23;20182;-86
2023/09/26 08:57:10;;;;;;;9.88;7.10;;;16.50;95.20;;;;;;6065808;23;20180;-87
2023/09/26 08:59:40;;;;;;;9.55;8.20;;;16.70;95.20;;;;;;6040526;23;20232;-86
2023/09/26 09:02:07;;;;;;;11.02;8.30;;;16.90;94.60;;;;;;6040184;23;20212;-88
2023/09/26 09:04:34;;;;;;;10.60;8.60;;;17.20;93.90;;;;;;6063165;23;20181;-85
2023/09/26 09:07:04;;;;;;;14.63;8.38;;;17.40;92.60;;;;;;6062218;23;20173;-86
2023/09/26 09:09:32;;;;;;;8.55;7.70;;;18.10;92.20;;;;;;6066542;23;20166;-88
2023/09/26 09:11:59;;;;;;;11.02;8.40;;;18.80;88.00;;;;;;6066905;23;20657;-87
2023/09/26 09:14:33;;;;;;;11.43;7.43;;;19.50;78.10;;;;;;6067746;23;20181;-85
2023/09/26 09:17:02;;;;;;;11.52;8.32;;;20.30;66.10;;;;;;6067709;23;20177;-83
2023/09/26 09:19:47;;;;;;;9.88;8.30;;;20.60;53.50;;;;;;6068800;23;20192;-84
2023/09/26 09:22:18;;;;;;;11.02;8.00;;;20.70;51.10;;;;;;6068167;23;20192;-84
2023/09/26 09:24:51;;;;;;;9.57;7.40;;;21.10;49.00;;;;;;6066803;23;20173;-84
2023/09/26 09:27:28;;;;;;;8.45;7.65;;;21.10;47.30;;;;;;6068336;23;20173;-84
2023/09/26 09:30:04;;;;;;;9.38;7.93;;;21.00;49.20;;;;;;6067813;23;20165;-82
2023/09/26 09:32:33;;;;;;;11.82;7.25;;;21.30;43.80;;;;;;6067720;23;20168;-85
2023/09/26 09:35:00;;;;;;;9.27;7.28;;;21.80;41.00;;;;;;6040497;23;20236;-84
2023/09/26 09:37:27;;;;;;;11.23;8.88;;;23.00;34.60;;;;;;6068260;23;20173;-84
2023/09/26 09:39:54;;;;;;;7.57;6.10;;;23.40;27.90;;;;;;6067640;23;20635;-84
2023/09/26 09:42:23;;;;;;;11.30;8.63;;;23.80;29.80;;;;;;6067162;23;20176;-86
2023/09/26 09:44:50;;;;;;;9.68;8.77;;;24.00;25.80;;;;;;6065131;23;20177;-85
2023/09/26 09:47:22;;;;;;;8.82;7.82;;;24.10;25.70;;;;;;6041142;23;20180;-85
2023/09/26 09:49:52;;;;;;;8.75;7.95;;;24.50;24.10;;;;;;6066444;23;20161;-87
2023/09/26 09:52:20;;;;;;;11.60;10.05;;;24.90;22.40;;;;;;6066506;23;20668;-86
2023/09/26 09:54:50;;;;;;;12.15;10.95;;;24.30;23.90;;;;;;6067391;23;20177;-87
2023/09/26 09:57:18;;;;;;;11.38;10.38;;;24.40;24.00;;;;;;6068029;23;20244;-85
2023/09/26 09:59:46;;;;;;;9.90;8.90;;;24.10;24.10;;;;;;6068202;23;20173;-87
2023/09/26 10:02:16;;;;;;;22.05;19.92;;;23.90;24.60;;;;;;6067278;23;20244;-87
2023/09/26 10:04:44;;;;;;;17.70;16.00;;;23.90;24.80;;;;;;6067728;23;20244;-85
2023/09/26 10:07:14;;;;;;;11.25;10.13;;;25.70;20.20;;;;;;6067440;23;20257;-85
2023/09/26 10:09:42;;;;;;;13.35;10.85;;;24.80;22.10;;;;;;6067530;23;20632;-85
2023/09/26 10:12:11;;;;;;;13.48;12.07;;;24.50;24.10;;;;;;6067286;23;20176;-84
2023/09/26 10:14:38;;;;;;;13.20;12.00;;;24.00;28.30;;;;;;6066348;23;20173;-85
2023/09/26 10:17:06;;;;;;;12.70;11.45;;;23.60;29.90;;;;;;6041515;23;20565;-85
2023/09/26 10:19:34;;;;;;;14.63;12.85;;;24.10;26.90;;;;;;6067148;23;20185;-84
2023/09/26 10:22:19;;;;;;;10.30;9.18;;;24.60;24.20;;;;;;6066187;23;20201;-85
2023/09/26 10:24:47;;;;;;;12.95;11.75;;;25.50;21.20;;;;;;6066029;23;20173;-85
2023/09/26 10:27:22;;;;;;;11.95;10.75;;;25.50;19.50;;;;;;6065338;23;20177;-85
2023/09/26 10:29:51;;;;;;;14.68;11.85;;;24.70;24.10;;;;;;6066116;23;20469;-85
2023/09/26 10:32:28;;;;;;;14.52;13.13;;;24.30;28.20;;;;;;6066774;23;20184;-85
2023/09/26 10:34:55;;;;;;;16.80;14.30;;;23.90;28.00;;;;;;6066955;23;20172;-85
2023/09/26 10:37:26;;;;;;;19.00;13.05;;;23.60;29.70;;;;;;6067265;23;20191;-85
2023/09/26 10:39:53;;;;;;;14.18;12.82;;;23.80;30.70;;;;;;6065452;23;20164;-85
2023/09/26 10:42:21;;;;;;;14.45;12.35;;;23.60;30.90;;;;;;6067133;23;20196;-86
2023/09/26 10:44:50;;;;;;;10.75;9.65;;;23.20;34.80;;;;;;6066932;23;20248;-88
2023/09/26 10:47:18;;;;;;;14.27;12.98;;;23.30;29.00;;;;;;6041214;23;20180;-87
2023/09/26 10:49:45;;;;;;;13.27;11.95;;;23.30;34.80;;;;;;6041483;23;20254;-87
2023/09/26 10:52:12;;;;;;;12.90;11.70;;;23.50;32.20;;;;;;6066160;23;20222;-87
2023/09/26 10:54:41;;;;;;;13.70;12.25;;;23.80;26.40;;;;;;6042280;23;20515;-87
2023/09/26 10:57:08;;;;;;;13.75;12.35;;;24.50;25.10;;;;;;6064363;23;20216;-87
2023/09/26 10:59:36;;;;;;;14.18;12.88;;;23.80;26.10;;;;;;6064539;23;20177;-87
2023/09/26 11:02:04;;;;;;;14.15;12.73;;;23.10;30.80;;;;;;6066530;23;20193;-86
2023/09/26 11:04:32;;;;;;;15.18;13.15;;;22.60;31.80;;;;;;6041381;23;20177;-87
2023/09/26 11:07:01;;;;;;;13.90;12.10;;;22.20;33.90;;;;;;6066295;23;20177;-86
2023/09/26 11:09:28;;;;;;;11.10;9.82;;;22.30;34.00;;;;;;6039083;23;20236;-86
2023/09/26 11:11:57;;;;;;;12.05;10.50;;;22.30;34.00;;;;;;6065410;23;20510;-87
2023/09/26 11:14:25;;;;;;;15.43;12.55;;;22.30;34.00;;;;;;6063941;23;20173;-89
2023/09/26 11:16:52;;;;;;;15.25;11.73;;;21.90;35.40;;;;;;6066467;23;20550;-86
2023/09/26 11:19:19;;;;;;;12.38;11.07;;;21.80;40.00;;;;;;6012581;23;20265;-87
2023/09/26 11:21:48;;;;;;;13.68;11.48;;;21.50;37.60;;;;;;6037821;23;20622;-88
2023/09/26 11:24:19;;;;;;;12.75;11.52;;;21.50;44.40;;;;;;6037154;23;20174;-89
2023/09/26 11:26:48;;;;;;;12.57;11.23;;;21.90;38.80;;;;;;6037373;23;20181;-89
2023/09/26 11:29:17;;;;;;;13.75;11.13;;;22.00;33.80;;;;;;6036874;23;20185;-88
2023/09/26 11:31:45;;;;;;;11.82;10.63;;;21.90;39.50;;;;;;6036388;23;20174;-89
2023/09/26 11:34:12;;;;;;;13.45;12.10;;;21.80;39.60;;;;;;6035610;23;20178;-88
2023/09/26 11:36:40;;;;;;;13.73;11.32;;;21.70;40.10;;;;;;6034545;23;20546;-88
2023/09/26 11:39:10;;;;;;;11.88;10.32;;;21.60;40.20;;;;;;6036104;23;20214;-91
2023/09/26 11:41:37;;;;;;;16.55;11.13;;;21.80;38.60;;;;;;6037549;23;20209;-89
2023/09/26 11:44:10;;;;;;;11.30;10.13;;;22.00;37.20;;;;;;6035326;23;20174;-88
2023/09/26 11:46:50;;;;;;;12.45;10.27;;;21.90;34.00;;;;;;6035243;23;20174;-87
2023/09/26 11:49:19;;;;;;;13.40;10.70;;;22.10;39.50;;;;;;6036336;23;20173;-86
2023/09/26 11:51:49;;;;;;;11.95;9.73;;;22.10;33.80;;;;;;6011452;23;20198;-85
2023/09/26 11:54:16;;;;;;;10.27;9.25;;;21.90;38.70;;;;;;6035581;23;20178;-88
2023/09/26 11:56:43;;;;;;;10.98;9.82;;;21.90;41.50;;;;;;6036260;23;20184;-87
2023/09/26 11:59:10;;;;;;;12.45;10.25;;;22.00;38.70;;;;;;6035161;23;20242;-87
2023/09/26 12:01:41;;;;;;;11.20;10.07;;;22.00;42.20;;;;;;6035487;23;20238;-88
2023/09/26 12:04:12;;;;;;;12.05;10.27;;;21.90;38.50;;;;;;6034271;23;20169;-87
2023/09/26 12:06:40;;;;;;;11.75;9.15;;;21.80;40.70;;;;;;6036420;23;20184;-88
2023/09/26 12:09:09;;;;;;;14.00;9.40;;;21.90;38.20;;;;;;6036350;23;20634;-87
2023/09/26 12:11:36;;;;;;;11.75;10.02;;;22.00;40.00;;;;;;6035938;23;20230;-88
2023/09/26 12:14:03;;;;;;;15.25;10.40;;;22.10;37.40;;;;;;6036781;23;20184;-88
2023/09/26 12:16:31;;;;;;;10.93;9.77;;;22.00;36.00;;;;;;6035731;23;20178;-88
2023/09/26 12:18:58;;;;;;;11.10;9.25;;;22.00;36.50;;;;;;6035642;23;20194;-86
2023/09/26 12:21:26;;;;;;;8.50;7.63;;;22.10;37.70;;;;;;6035222;23;20190;-88
2023/09/26 12:23:53;;;;;;;9.55;8.50;;;22.10;37.30;;;;;;6033936;23;20379;-85
2023/09/26 12:26:20;;;;;;;10.57;8.32;;;22.10;40.20;;;;;;6033820;23;20233;-88
2023/09/26 12:28:48;;;;;;;12.35;9.52;;;22.10;38.40;;;;;;6036284;23;20253;-87
2023/09/26 12:31:15;;;;;;;11.48;10.27;;;22.00;37.50;;;;;;6039379;23;20649;-86
2023/09/26 12:33:41;;;;;;;12.10;9.43;;;22.00;33.80;;;;;;6036203;23;20181;-86
2023/09/26 12:36:08;;;;;;;11.32;10.07;;;21.80;35.50;;;;;;6035047;23;20268;-88
2023/09/26 12:38:37;;;;;;;11.05;9.20;;;21.70;34.80;;;;;;6037262;23;20261;-87
2023/09/26 12:41:04;;;;;;;11.02;10.02;;;21.80;35.10;;;;;;6035613;23;20238;-86
2023/09/26 12:43:31;;;;;;;13.48;10.13;;;22.00;34.90;;;;;;6035526;23;20180;-87
2023/09/26 12:45:58;;;;;;;11.18;9.52;;;21.80;36.00;;;;;;6036255;23;20655;-87
2023/09/26 12:48:25;;;;;;;11.10;9.98;;;21.70;34.60;;;;;;6036077;23;20196;-86
2023/09/26 12:50:52;;;;;;;12.98;10.38;;;21.50;38.30;;;;;;6033575;23;20966;-86
2023/09/26 12:53:19;;;;;;;10.73;9.32;;;21.60;36.50;;;;;;6034997;23;20889;-86
2023/09/26 12:55:47;;;;;;;9.02;8.13;;;21.60;37.80;;;;;;6035201;23;20185;-85
2023/09/26 12:58:14;;;;;;;9.70;8.70;;;21.50;37.80;;;;;;6035563;23;20178;-86
2023/09/26 13:00:41;;;;;;;11.57;7.90;;;21.40;37.00;;;;;;6036905;23;20198;-86
2023/09/26 13:03:08;;;;;;;7.97;6.90;;;21.40;39.80;;;;;;6037000;23;20208;-85
2023/09/26 13:05:34;;;;;;;8.73;6.05;;;21.40;40.60;;;;;;6036674;23;20201;-85
2023/09/26 13:08:02;;;;;;;10.85;7.50;;;21.50;41.20;;;;;;6034895;23;20652;-86